Terminal Aerodrome Forecast
Issued by NWS

Home | Current Version | Previous Version | Text Only | Print | Product List | Glossary On
Versions: 1 2 3 4 5 6 7 8 9 10 11 12 13 14 15 16 17 18 19 20 21 22 23 24 25 26 27 28 29 30
000
FTUS43 KLSX 011622 AAC
TAFCPS
TAF AMD
KCPS 011622Z 0116/0212 24008KT P6SM FEW018 SCT050 OVC100
     FM012200 18008KT P6SM VCSH BKN060
      TEMPO 0122/0201 5SM -TSRA OVC045CB
     FM020100 17009KT 4SM SHRA VCTS OVC025CB
     FM020900 12005KT 4SM BR OVC010=

USA.gov is the U.S. government's official web portal to all federal, state and local government web resources and services.